Absaraka, North Dakota
Current Conditions -  °F | °C
As of 8:53 PM on Friday 28 Nov 2014 (Local Time) from KFAR Reporting Station
Broken Clouds Broken Clouds  
Wind Chill:   Ceiling: 11000
Heat Index: 19°   Visibility: 10mi
Dew Point: 12°   Wind: 18mph
Humidity: 74%   Direction: 150°SSE
Pressure: 29.64"   Gusts: 28mph
Location:  46.98°N, 97.39°W
Report Text: KFAR 290253Z 15016G24KT 10SM BKN110 M07/M11 A2964 RMK AO2 SLP052 T10721111 58038
Loading
Personal Weather Stations






























Interactive Weather Map New forecast layout! Learn more

10-Day Weather Forecast

Advertisements
Track Severe Weather on mobile